createdAt,value
2022-08-30T00:02:10.826Z,13.80
2022-08-30T00:04:37.922Z,13.80
2022-08-30T00:07:05.130Z,13.80
2022-08-30T00:09:32.654Z,13.70
2022-08-30T00:11:59.654Z,13.70
2022-08-30T00:14:27.657Z,13.70
2022-08-30T00:16:54.762Z,13.60
2022-08-30T00:19:21.572Z,13.70
2022-08-30T00:21:48.378Z,13.60
2022-08-30T00:24:15.222Z,13.60
2022-08-30T00:26:42.061Z,13.50
2022-08-30T00:29:08.868Z,13.50
2022-08-30T00:31:35.734Z,13.50
2022-08-30T00:34:02.999Z,13.50
2022-08-30T00:36:29.823Z,13.50
2022-08-30T00:38:56.652Z,13.50
2022-08-30T00:41:23.521Z,13.40
2022-08-30T00:43:50.426Z,13.40
2022-08-30T00:46:17.318Z,13.40
2022-08-30T00:48:47.806Z,13.40
2022-08-30T00:51:15.778Z,13.40
2022-08-30T00:53:46.608Z,13.30
2022-08-30T00:56:14.080Z,13.30
2022-08-30T00:58:48.756Z,13.30
2022-08-30T01:01:16.243Z,13.20
2022-08-30T01:03:44.005Z,13.20
2022-08-30T01:06:12.261Z,13.20
2022-08-30T01:08:39.954Z,13.20
2022-08-30T01:11:07.880Z,13.10
2022-08-30T01:13:35.763Z,13.10
2022-08-30T01:16:03.192Z,13.10
2022-08-30T01:18:32.044Z,13.00
2022-08-30T01:21:08.457Z,12.90
2022-08-30T01:23:39.191Z,13.00
2022-08-30T01:26:08.384Z,12.90
2022-08-30T01:28:35.884Z,12.90
2022-08-30T01:31:02.912Z,12.80
2022-08-30T01:33:29.841Z,12.80
2022-08-30T01:36:00.132Z,12.80
2022-08-30T01:38:34.817Z,12.80
2022-08-30T01:41:11.283Z,12.80
2022-08-30T01:43:38.600Z,12.80
2022-08-30T01:46:05.640Z,12.80
2022-08-30T01:48:32.791Z,12.80
2022-08-30T01:51:02.744Z,12.80
2022-08-30T01:53:29.685Z,12.80
2022-08-30T01:55:56.586Z,12.80
2022-08-30T01:58:23.613Z,12.70
2022-08-30T02:00:51.371Z,12.70
2022-08-30T02:03:19.410Z,12.70
2022-08-30T02:05:46.454Z,12.60
2022-08-30T02:08:13.247Z,12.60
2022-08-30T02:10:40.383Z,12.60
2022-08-30T02:13:07.209Z,12.60
2022-08-30T02:15:41.899Z,12.60
2022-08-30T02:18:10.769Z,12.60
2022-08-30T02:20:39.837Z,12.60
2022-08-30T02:23:06.698Z,12.60
2022-08-30T02:25:33.594Z,12.50
2022-08-30T02:28:00.406Z,12.40
2022-08-30T02:30:28.321Z,12.40
2022-08-30T02:32:55.365Z,12.30
2022-08-30T02:35:22.200Z,12.40
2022-08-30T02:37:52.541Z,12.30
2022-08-30T02:40:21.218Z,12.30
2022-08-30T02:42:49.441Z,12.30
2022-08-30T02:45:16.390Z,12.30
2022-08-30T02:47:47.117Z,12.30
2022-08-30T02:50:15.329Z,12.20
2022-08-30T02:52:42.515Z,12.20
2022-08-30T02:55:12.275Z,12.20
2022-08-30T02:57:39.132Z,12.20
2022-08-30T03:00:10.981Z,12.20
2022-08-30T03:02:38.105Z,12.20
2022-08-30T03:05:06.430Z,12.20
2022-08-30T03:07:34.212Z,12.10
2022-08-30T03:10:01.056Z,12.10
2022-08-30T03:12:27.900Z,12.10
2022-08-30T03:14:54.817Z,12.10
2022-08-30T03:17:21.792Z,12.10
2022-08-30T03:19:48.586Z,12.10
2022-08-30T03:22:15.661Z,12.10
2022-08-30T03:24:42.494Z,12.10
2022-08-30T03:27:09.715Z,12.10
2022-08-30T03:29:36.583Z,12.10
2022-08-30T03:32:04.179Z,12.00
2022-08-30T03:34:31.693Z,12.00
2022-08-30T03:36:58.679Z,12.00
2022-08-30T03:39:25.589Z,12.00
2022-08-30T03:41:52.630Z,11.90
2022-08-30T03:44:20.570Z,11.90
2022-08-30T03:46:48.758Z,11.80
2022-08-30T03:49:16.762Z,11.70
2022-08-30T03:51:43.784Z,11.70
2022-08-30T03:54:10.751Z,11.70
2022-08-30T03:56:37.801Z,11.70
2022-08-30T03:59:05.292Z,11.70
2022-08-30T04:01:37.786Z,11.70
2022-08-30T04:07:31.291Z,11.50
2022-08-30T04:09:58.369Z,11.40
2022-08-30T04:12:25.223Z,11.30
2022-08-30T04:14:52.572Z,11.30
2022-08-30T04:17:20.006Z,11.30
2022-08-30T04:19:46.847Z,11.30
2022-08-30T04:22:13.704Z,11.30
2022-08-30T04:24:41.661Z,11.40
2022-08-30T04:27:09.036Z,11.40
2022-08-30T04:29:36.466Z,11.50
2022-08-30T04:32:03.834Z,11.50
2022-08-30T04:34:30.736Z,11.50
2022-08-30T04:36:57.661Z,11.50
2022-08-30T04:39:25.640Z,11.60
2022-08-30T04:41:52.501Z,11.60
2022-08-30T04:44:19.786Z,11.60
2022-08-30T04:46:47.300Z,11.60
2022-08-30T04:49:14.689Z,11.60
2022-08-30T04:51:41.751Z,11.60
2022-08-30T04:54:08.823Z,11.60
2022-08-30T04:56:35.936Z,11.50
2022-08-30T04:59:03.231Z,11.50
2022-08-30T05:01:32.508Z,11.50
2022-08-30T05:04:11.990Z,11.40
2022-08-30T05:06:38.917Z,11.40
2022-08-30T05:09:05.861Z,11.40
2022-08-30T05:11:33.199Z,11.40
2022-08-30T05:14:00.107Z,11.50
2022-08-30T05:16:27.301Z,11.50
2022-08-30T05:18:54.796Z,11.60
2022-08-30T05:21:25.449Z,11.60
2022-08-30T05:23:54.940Z,11.70
2022-08-30T05:26:27.484Z,11.70
2022-08-30T05:28:54.572Z,11.80
2022-08-30T05:31:27.798Z,11.90
2022-08-30T05:33:55.430Z,12.00
2022-08-30T05:36:24.844Z,12.10
2022-08-30T05:38:51.691Z,12.20
2022-08-30T05:41:21.074Z,12.20
2022-08-30T05:43:48.676Z,12.30
2022-08-30T05:46:19.946Z,12.40
2022-08-30T05:48:47.713Z,12.40
2022-08-30T05:51:18.311Z,12.50
2022-08-30T05:53:46.050Z,12.50
2022-08-30T05:56:15.252Z,12.60
2022-08-30T05:58:42.457Z,12.60
2022-08-30T06:01:39.782Z,12.70
2022-08-30T06:04:08.512Z,12.80
2022-08-30T06:06:37.863Z,12.80
2022-08-30T06:09:06.790Z,13.00
2022-08-30T06:11:34.315Z,13.10
2022-08-30T06:14:02.239Z,13.20
2022-08-30T06:16:29.677Z,13.30
2022-08-30T06:18:59.590Z,13.40
2022-08-30T06:21:29.729Z,13.40
2022-08-30T06:23:58.202Z,13.50
2022-08-30T06:26:26.543Z,13.60
2022-08-30T06:28:53.719Z,13.60
2022-08-30T06:31:23.464Z,13.70
2022-08-30T06:33:51.682Z,13.80
2022-08-30T06:36:22.411Z,13.90
2022-08-30T06:38:57.647Z,14.10
2022-08-30T06:41:29.753Z,14.20
2022-08-30T06:43:57.771Z,14.30
2022-08-30T06:46:28.543Z,14.40
2022-08-30T06:48:56.832Z,14.50
2022-08-30T06:51:26.383Z,14.70
2022-08-30T06:53:58.097Z,14.80
2022-08-30T06:56:27.418Z,14.90
2022-08-30T06:58:54.872Z,15.00
2022-08-30T07:01:24.395Z,15.20
2022-08-30T07:03:51.807Z,15.30
2022-08-30T07:06:19.394Z,15.50
2022-08-30T07:08:47.012Z,15.70
2022-08-30T07:11:15.091Z,15.90
2022-08-30T07:13:41.995Z,16.10
2022-08-30T07:16:13.468Z,16.20
2022-08-30T07:18:55.063Z,16.50
2022-08-30T07:21:49.391Z,16.60
2022-08-30T07:24:16.821Z,16.90
2022-08-30T07:26:49.869Z,17.20
2022-08-30T07:29:17.919Z,17.50
2022-08-30T07:31:44.819Z,18.30
2022-08-30T07:34:11.679Z,20.40
2022-08-30T07:36:40.140Z,22.40
2022-08-30T07:39:07.127Z,24.30
2022-08-30T07:41:38.514Z,25.90
2022-08-30T07:44:06.855Z,27.80
2022-08-30T07:46:34.456Z,29.40
2022-08-30T07:49:04.125Z,31.10
2022-08-30T07:51:32.276Z,31.70
2022-08-30T07:53:59.248Z,32.60
2022-08-30T07:56:26.900Z,32.70
2022-08-30T07:58:54.239Z,32.10
2022-08-30T08:01:22.370Z,32.40
2022-08-30T08:03:50.714Z,31.60
2022-08-30T08:06:19.667Z,31.60
2022-08-30T08:08:46.890Z,32.00
2022-08-30T08:11:16.626Z,32.10
2022-08-30T08:13:53.872Z,33.00
2022-08-30T08:16:26.984Z,34.40
2022-08-30T08:18:54.709Z,34.70
2022-08-30T08:21:23.162Z,34.40
2022-08-30T08:23:51.120Z,34.00
2022-08-30T08:26:19.008Z,33.90
2022-08-30T08:28:47.118Z,34.70
2022-08-30T08:31:24.099Z,35.70
2022-08-30T08:33:55.739Z,36.50
2022-08-30T08:36:22.867Z,36.70
2022-08-30T08:38:49.761Z,36.50
2022-08-30T08:41:35.258Z,35.90
2022-08-30T08:44:34.952Z,35.40
2022-08-30T08:47:11.187Z,36.00
2022-08-30T08:49:40.588Z,37.00
2022-08-30T08:52:31.316Z,36.60
2022-08-30T08:55:02.214Z,36.40
2022-08-30T08:57:35.260Z,36.90
2022-08-30T09:00:07.759Z,37.30
2022-08-30T09:02:56.730Z,38.70
2022-08-30T09:05:27.425Z,38.50
2022-08-30T09:08:10.444Z,38.00
2022-08-30T09:10:50.306Z,37.60
2022-08-30T09:13:19.055Z,38.90
2022-08-30T09:15:48.957Z,40.10
2022-08-30T09:18:20.038Z,40.30
2022-08-30T09:20:51.580Z,40.70
2022-08-30T09:23:27.482Z,39.50
2022-08-30T09:25:59.309Z,39.30
2022-08-30T09:28:29.166Z,39.00
2022-08-30T09:31:05.404Z,38.80
2022-08-30T09:33:37.181Z,38.50
2022-08-30T09:36:23.673Z,38.70
2022-08-30T09:39:04.014Z,38.20
2022-08-30T09:41:42.675Z,37.30
2022-08-30T09:44:22.906Z,37.50
2022-08-30T09:46:56.876Z,37.40
2022-08-30T09:49:38.789Z,37.40
2022-08-30T09:52:11.975Z,36.70
2022-08-30T09:55:03.161Z,36.60
2022-08-30T09:57:48.042Z,37.30
2022-08-30T10:00:19.389Z,36.10
2022-08-30T10:03:34.824Z,37.20
2022-08-30T10:06:24.891Z,36.90
2022-08-30T10:09:28.098Z,37.40
2022-08-30T10:12:28.728Z,38.80
2022-08-30T10:15:16.728Z,40.40
2022-08-30T10:18:05.663Z,41.10
2022-08-30T10:21:12.671Z,40.70
2022-08-30T10:23:47.413Z,41.40
2022-08-30T10:26:30.896Z,41.80
2022-08-30T10:29:06.471Z,41.10
2022-08-30T10:31:58.247Z,42.20
2022-08-30T10:34:30.481Z,42.30
2022-08-30T10:37:22.943Z,42.70
2022-08-30T10:39:59.430Z,43.20
2022-08-30T10:42:37.963Z,43.50
2022-08-30T10:45:15.117Z,42.60
2022-08-30T10:47:51.003Z,41.90
2022-08-30T10:50:25.139Z,41.80
2022-08-30T10:53:10.171Z,41.80
2022-08-30T10:55:49.850Z,41.50
2022-08-30T10:58:18.524Z,40.60
2022-08-30T11:01:19.346Z,40.30
2022-08-30T11:04:19.634Z,40.10
2022-08-30T11:07:24.609Z,40.80
2022-08-30T11:09:54.899Z,40.10
2022-08-30T11:12:42.224Z,39.30
2022-08-30T11:15:21.447Z,39.30
2022-08-30T11:18:03.246Z,39.40
2022-08-30T11:20:39.888Z,39.50
2022-08-30T11:23:15.448Z,38.00
2022-08-30T11:25:59.471Z,37.70
2022-08-30T11:28:35.458Z,38.20
2022-08-30T11:31:11.354Z,38.30
2022-08-30T11:33:46.252Z,38.30
2022-08-30T11:36:37.753Z,38.60
2022-08-30T11:39:42.882Z,38.20
2022-08-30T11:42:29.305Z,38.00
2022-08-30T11:45:26.727Z,38.20
2022-08-30T11:48:05.550Z,37.70
2022-08-30T11:50:57.408Z,36.90
2022-08-30T11:53:53.649Z,36.60
2022-08-30T11:56:26.617Z,36.20
2022-08-30T11:59:23.772Z,36.20
2022-08-30T12:01:51.933Z,35.90
2022-08-30T12:04:22.213Z,35.30
2022-08-30T12:07:05.613Z,34.30
2022-08-30T12:09:35.597Z,34.60
2022-08-30T12:12:12.479Z,34.30
2022-08-30T12:14:42.183Z,34.10
2022-08-30T12:17:43.051Z,34.30
2022-08-30T12:20:28.452Z,34.40
2022-08-30T12:22:56.162Z,33.80
2022-08-30T12:25:34.121Z,33.20
2022-08-30T12:28:24.638Z,32.70
2022-08-30T12:30:52.494Z,32.70
2022-08-30T12:33:41.536Z,32.30
2022-08-30T12:36:34.866Z,32.00
2022-08-30T12:39:09.747Z,32.10
2022-08-30T12:41:43.462Z,31.50
2022-08-30T12:44:31.812Z,31.40
2022-08-30T12:47:02.243Z,31.30
2022-08-30T12:49:34.008Z,31.20
2022-08-30T12:52:33.597Z,31.20
2022-08-30T12:55:17.302Z,31.20
2022-08-30T12:58:01.082Z,31.40
2022-08-30T13:00:35.309Z,31.40
2022-08-30T13:03:30.872Z,31.40
2022-08-30T13:05:58.584Z,31.20
2022-08-30T13:08:31.656Z,30.80
2022-08-30T13:11:09.103Z,30.90
2022-08-30T13:13:40.523Z,30.90
2022-08-30T13:16:35.056Z,30.80
2022-08-30T13:19:26.162Z,30.80
2022-08-30T13:21:55.806Z,30.70
2022-08-30T13:24:25.539Z,30.80
2022-08-30T13:26:54.754Z,30.50
2022-08-30T13:29:26.601Z,30.40
2022-08-30T13:31:54.171Z,30.50
2022-08-30T13:34:22.652Z,30.40
2022-08-30T13:36:57.778Z,30.40
2022-08-30T13:39:25.503Z,29.90
2022-08-30T13:41:52.835Z,29.80
2022-08-30T13:44:20.102Z,29.90
2022-08-30T13:47:32.178Z,29.60
2022-08-30T13:49:46.816Z,29.60
2022-08-30T13:52:22.871Z,29.70
2022-08-30T13:54:51.796Z,29.70
2022-08-30T14:00:14.769Z,29.80
2022-08-30T14:02:45.446Z,29.70
2022-08-30T14:05:25.547Z,29.60
2022-08-30T14:08:00.834Z,29.50
2022-08-30T14:10:31.148Z,29.40
2022-08-30T14:13:07.936Z,29.30
2022-08-30T14:15:41.528Z,29.10
2022-08-30T14:18:08.588Z,29.10
2022-08-30T14:20:38.664Z,29.00
2022-08-30T14:23:09.919Z,28.90
2022-08-30T14:25:37.802Z,28.80
2022-08-30T14:28:09.530Z,28.60
2022-08-30T14:30:37.015Z,28.60
2022-08-30T14:33:03.930Z,28.60
2022-08-30T14:35:31.197Z,28.60
2022-08-30T14:37:58.559Z,28.50
2022-08-30T14:40:26.592Z,28.50
2022-08-30T14:42:53.463Z,28.50
2022-08-30T14:45:20.338Z,28.40
2022-08-30T14:47:47.946Z,28.40
2022-08-30T14:50:15.304Z,28.40
2022-08-30T14:52:42.779Z,28.30
2022-08-30T14:55:12.643Z,28.10
2022-08-30T14:57:39.588Z,28.10
2022-08-30T15:00:10.197Z,28.10
2022-08-30T15:02:37.117Z,28.10
2022-08-30T15:05:06.866Z,28.20
2022-08-30T15:07:35.671Z,28.10
2022-08-30T15:10:03.302Z,27.80
2022-08-30T15:12:30.234Z,27.60
2022-08-30T15:15:00.142Z,27.60
2022-08-30T15:17:27.213Z,27.70
2022-08-30T15:19:54.667Z,27.80
2022-08-30T15:22:21.499Z,27.70
2022-08-30T15:24:49.024Z,27.70
2022-08-30T15:27:17.823Z,27.50
2022-08-30T15:29:44.979Z,27.40
2022-08-30T15:32:11.902Z,27.40
2022-08-30T15:34:38.707Z,27.30
2022-08-30T15:37:05.570Z,27.20
2022-08-30T15:39:34.834Z,27.00
2022-08-30T15:42:02.027Z,27.00
2022-08-30T15:44:31.201Z,27.00
2022-08-30T15:46:58.611Z,27.00
2022-08-30T15:49:25.959Z,26.90
2022-08-30T15:51:54.116Z,26.90
2022-08-30T15:54:23.473Z,26.80
2022-08-30T15:56:52.259Z,26.80
2022-08-30T15:59:19.620Z,26.70
2022-08-30T16:01:47.670Z,26.60
2022-08-30T16:04:17.159Z,26.60
2022-08-30T16:06:46.642Z,26.60
2022-08-30T16:09:13.962Z,26.50
2022-08-30T16:11:40.886Z,26.50
2022-08-30T16:14:08.622Z,26.30
2022-08-30T16:16:37.806Z,26.10
2022-08-30T16:19:07.249Z,26.10
2022-08-30T16:21:36.999Z,26.10
2022-08-30T16:24:06.893Z,26.00
2022-08-30T16:26:35.121Z,25.90
2022-08-30T16:29:03.307Z,25.90
2022-08-30T16:31:31.556Z,25.80
2022-08-30T16:34:02.827Z,25.70
2022-08-30T16:36:32.207Z,25.70
2022-08-30T16:38:59.730Z,25.70
2022-08-30T16:41:26.953Z,25.70
2022-08-30T16:43:54.286Z,25.70
2022-08-30T16:46:23.305Z,25.70
2022-08-30T16:48:55.115Z,25.60
2022-08-30T16:51:23.966Z,25.60
2022-08-30T16:54:01.237Z,25.50
2022-08-30T16:56:30.161Z,25.50
2022-08-30T17:01:45.246Z,25.40
2022-08-30T17:04:13.901Z,25.20
2022-08-30T17:06:45.804Z,25.00
2022-08-30T17:09:15.121Z,25.00
2022-08-30T17:11:43.222Z,24.90
2022-08-30T17:14:10.584Z,24.80
2022-08-30T17:16:38.353Z,24.70
2022-08-30T17:19:07.127Z,24.60
2022-08-30T17:21:35.258Z,24.60
2022-08-30T17:24:04.052Z,24.50
2022-08-30T17:26:33.249Z,24.40
2022-08-30T17:29:00.739Z,24.30
2022-08-30T17:31:30.855Z,24.20
2022-08-30T17:34:03.154Z,24.20
2022-08-30T17:36:36.770Z,24.00
2022-08-30T17:39:11.024Z,23.90
2022-08-30T17:41:45.412Z,23.80
2022-08-30T17:44:19.264Z,23.80
2022-08-30T17:46:46.532Z,23.70
2022-08-30T17:49:13.496Z,23.60
2022-08-30T17:51:42.929Z,23.50
2022-08-30T17:54:12.758Z,23.40
2022-08-30T17:56:42.550Z,23.40
2022-08-30T17:59:14.539Z,23.20
2022-08-30T18:01:42.943Z,23.10
2022-08-30T18:04:10.738Z,23.00
2022-08-30T18:06:37.683Z,23.00
2022-08-30T18:09:08.392Z,22.90
2022-08-30T18:11:39.592Z,22.80
2022-08-30T18:14:07.734Z,22.70
2022-08-30T18:16:39.022Z,22.60
2022-08-30T18:19:18.201Z,22.50
2022-08-30T18:21:45.190Z,22.40
2022-08-30T18:24:12.690Z,22.40
2022-08-30T18:26:42.977Z,22.30
2022-08-30T18:29:11.052Z,22.20
2022-08-30T18:31:38.973Z,22.20
2022-08-30T18:34:07.111Z,22.20
2022-08-30T18:36:40.356Z,22.10
2022-08-30T18:39:08.491Z,22.00
2022-08-30T18:41:43.010Z,21.90
2022-08-30T18:44:26.853Z,21.70
2022-08-30T18:46:57.129Z,21.70
2022-08-30T18:49:26.003Z,21.60
2022-08-30T18:51:53.846Z,21.50
2022-08-30T18:54:21.044Z,21.50
2022-08-30T18:56:48.317Z,21.40
2022-08-30T18:59:16.168Z,21.30
2022-08-30T19:01:44.316Z,21.20
2022-08-30T19:06:58.745Z,21.10
2022-08-30T19:09:26.594Z,21.10
2022-08-30T19:11:53.982Z,21.00
2022-08-30T19:14:22.030Z,20.90
2022-08-30T19:16:49.761Z,20.80
2022-08-30T19:19:21.417Z,20.80
2022-08-30T19:21:49.467Z,20.70
2022-08-30T19:24:18.748Z,20.60
2022-08-30T19:26:49.745Z,20.60
2022-08-30T19:29:24.154Z,20.50
2022-08-30T19:31:52.531Z,20.40
2022-08-30T19:34:23.494Z,20.30
2022-08-30T19:36:54.512Z,20.20
2022-08-30T19:39:25.251Z,20.00
2022-08-30T19:41:59.328Z,19.90
2022-08-30T19:44:35.033Z,19.80
2022-08-30T19:47:07.909Z,19.80
2022-08-30T19:49:37.123Z,19.70
2022-08-30T19:52:08.867Z,19.60
2022-08-30T19:54:36.803Z,19.50
2022-08-30T19:57:08.641Z,19.40
2022-08-30T19:59:36.981Z,19.30
2022-08-30T20:02:09.555Z,19.20
2022-08-30T20:04:41.496Z,19.00
2022-08-30T20:07:10.905Z,18.90
2022-08-30T20:09:38.634Z,18.80
2022-08-30T20:12:06.829Z,18.70
2022-08-30T20:14:37.691Z,18.60
2022-08-30T20:17:11.760Z,18.60
2022-08-30T20:19:41.176Z,18.60
2022-08-30T20:22:15.254Z,18.50
2022-08-30T20:24:23.217Z,25.40
2022-08-30T20:24:30.253Z,21.20
2022-08-30T20:24:53.007Z,18.40
2022-08-30T20:27:26.044Z,18.30
2022-08-30T20:29:55.840Z,18.20
2022-08-30T20:32:27.190Z,18.10
2022-08-30T20:34:58.043Z,18.00
2022-08-30T20:37:27.930Z,17.90
2022-08-30T20:39:58.806Z,17.80
2022-08-30T20:42:27.458Z,17.70
2022-08-30T20:44:59.695Z,17.70
2022-08-30T20:47:29.606Z,17.60
2022-08-30T20:49:59.677Z,17.60
2022-08-30T20:52:27.815Z,17.60
2022-08-30T20:54:57.963Z,17.50
2022-08-30T20:57:28.721Z,17.50
2022-08-30T20:59:59.434Z,17.40
2022-08-30T21:02:27.403Z,17.40
2022-08-30T21:04:55.426Z,17.30
2022-08-30T21:07:23.083Z,17.20
2022-08-30T21:09:54.354Z,17.10
2022-08-30T21:12:26.080Z,17.10
2022-08-30T21:14:53.289Z,17.10
2022-08-30T21:17:20.371Z,17.10
2022-08-30T21:19:47.442Z,17.00
2022-08-30T21:22:14.375Z,17.00
2022-08-30T21:24:41.269Z,16.90
2022-08-30T21:27:10.715Z,17.10
2022-08-30T21:29:40.971Z,17.20
2022-08-30T21:32:07.816Z,17.30
2022-08-30T21:34:55.684Z,17.20
2022-08-30T21:37:22.757Z,17.10
2022-08-30T21:39:50.304Z,17.10
2022-08-30T21:42:17.295Z,17.00
2022-08-30T21:44:44.343Z,17.00
2022-08-30T21:47:11.180Z,16.90
2022-08-30T21:49:38.443Z,17.00
2022-08-30T21:52:05.295Z,16.90
2022-08-30T21:54:33.032Z,16.80
2022-08-30T21:57:02.220Z,16.70
2022-08-30T21:59:29.168Z,16.60
2022-08-30T22:01:56.438Z,16.70
2022-08-30T22:04:26.439Z,16.70
2022-08-30T22:06:53.820Z,16.60
2022-08-30T22:09:25.818Z,16.60
2022-08-30T22:11:52.763Z,16.60
2022-08-30T22:14:19.827Z,16.50
2022-08-30T22:16:46.938Z,16.30
2022-08-30T22:19:14.607Z,16.30
2022-08-30T22:21:42.674Z,16.20
2022-08-30T22:24:11.044Z,16.10
2022-08-30T22:26:38.330Z,16.10
2022-08-30T22:29:07.586Z,16.00
2022-08-30T22:31:35.007Z,15.90
2022-08-30T22:34:02.034Z,15.90
2022-08-30T22:36:32.817Z,15.80
2022-08-30T22:39:01.093Z,15.80
2022-08-30T22:41:31.499Z,15.70
2022-08-30T22:43:59.049Z,15.70
2022-08-30T22:46:34.266Z,15.70
2022-08-30T22:49:03.078Z,15.70
2022-08-30T22:51:29.950Z,15.70
2022-08-30T22:53:57.660Z,15.70
2022-08-30T22:56:26.468Z,15.70
2022-08-30T22:58:54.828Z,15.70
2022-08-30T23:01:28.504Z,15.70
2022-08-30T23:03:56.376Z,15.60
2022-08-30T23:06:24.041Z,15.70
2022-08-30T23:08:51.042Z,15.70
2022-08-30T23:11:18.210Z,15.60
2022-08-30T23:13:45.162Z,15.60
2022-08-30T23:16:13.138Z,15.50
2022-08-30T23:18:41.748Z,15.50
2022-08-30T23:21:14.264Z,15.50
2022-08-30T23:24:00.150Z,15.50
2022-08-30T23:26:45.823Z,15.50
2022-08-30T23:29:31.655Z,15.40
2022-08-30T23:32:17.649Z,15.50
2022-08-30T23:35:03.104Z,15.50
2022-08-30T23:37:53.204Z,15.50
2022-08-30T23:40:39.841Z,15.50
2022-08-30T23:43:26.129Z,15.60
2022-08-30T23:46:11.449Z,15.60
2022-08-30T23:49:05.583Z,15.50
2022-08-30T23:51:51.474Z,15.50
2022-08-30T23:54:36.917Z,15.40
2022-08-30T23:57:23.633Z,15.30
